Time;durP1;ratioP1;P1;durP2;ratioP2;P2;SDS_P1;SDS_P2;PMS_P1;PMS_P2;Temp;Humidity;BMP_temperature;BMP_pressure;BME280_temperature;BME280_humidity;BME280_pressure;Samples;Min_cycle;Max_cycle;Signal;HPM_P1;HPM_P2
2023/04/29 00:01:58;;;;;;;33.45;22.42;;;;;;;16.43;50.54;93046.13;4903826;29;20047;-89
2023/04/29 00:04:26;;;;;;;41.90;24.42;;;;;;;16.41;49.87;93032.25;4912670;29;20040;-88
2023/04/29 00:06:52;;;;;;;36.90;23.67;;;;;;;16.40;50.40;93033.50;4871637;29;20103;-88
2023/04/29 00:09:17;;;;;;;37.78;24.02;;;;;;;16.41;50.41;93024.81;4945269;28;20047;-89
2023/04/29 00:11:42;;;;;;;41.78;24.92;;;;;;;16.40;50.28;93030.75;4913470;29;20395;-88
2023/04/29 00:14:08;;;;;;;35.95;23.58;;;;;;;16.39;50.28;93032.00;4942427;28;20095;-87
2023/04/29 00:16:35;;;;;;;42.15;24.73;;;;;;;16.36;50.44;93031.03;4898306;29;20384;-90
2023/04/29 00:19:01;;;;;;;31.35;22.88;;;;;;;16.39;50.41;93026.56;4920766;29;20056;-87
2023/04/29 00:21:26;;;;;;;37.53;23.67;;;;;;;16.39;50.41;93024.56;4882674;29;20052;-90
2023/04/29 00:23:52;;;;;;;37.97;22.35;;;;;;;16.37;50.47;93034.50;4913679;29;20039;-89
2023/04/29 00:26:17;;;;;;;33.55;22.67;;;;;;;16.38;50.46;93025.81;4929677;29;20044;-89
2023/04/29 00:28:43;;;;;;;37.72;23.55;;;;;;;16.40;50.07;93017.13;4929180;29;20046;-90
2023/04/29 00:31:08;;;;;;;32.15;21.02;;;;;;;16.35;50.41;93018.63;4912573;29;20032;-89
2023/04/29 00:33:34;;;;;;;37.83;22.55;;;;;;;16.38;50.61;93022.34;4897987;29;20039;-88
2023/04/29 00:36:00;;;;;;;30.85;22.48;;;;;;;16.39;49.98;93024.56;4914162;29;20386;-89
2023/04/29 00:38:26;;;;;;;36.03;22.60;;;;;;;16.44;50.58;93021.06;4890514;29;20232;-89
2023/04/29 00:40:52;;;;;;;34.53;21.88;;;;;;;16.43;50.04;93027.75;4898358;29;20047;-90
2023/04/29 00:43:18;;;;;;;36.38;23.80;;;;;;;16.37;50.17;93018.88;4927915;29;20107;-90
2023/04/29 00:45:45;;;;;;;35.80;23.50;;;;;;;16.37;50.15;93016.16;4929129;29;20043;-88
2023/04/29 00:48:11;;;;;;;33.67;23.08;;;;;;;16.38;50.20;93009.44;4913822;29;20051;-88
2023/04/29 00:50:37;;;;;;;37.78;23.98;;;;;;;16.43;50.13;93007.94;4917741;29;20538;-90
2023/04/29 00:53:02;;;;;;;33.25;22.65;;;;;;;16.42;50.16;92998.25;4906744;29;20534;-89
2023/04/29 00:55:28;;;;;;;35.40;23.33;;;;;;;16.38;50.28;92998.53;4917140;29;20040;-90
2023/04/29 00:57:53;;;;;;;36.72;21.92;;;;;;;16.40;50.20;92992.56;4917699;29;20418;-87
2023/04/29 01:00:19;;;;;;;40.00;23.67;;;;;;;16.39;50.27;93000.00;4913773;29;20446;-88
2023/04/29 01:02:45;;;;;;;29.70;21.40;;;;;;;16.41;50.22;92994.06;4928030;29;20040;-89
2023/04/29 01:05:10;;;;;;;32.22;21.35;;;;;;;16.39;50.41;93000.00;4909756;29;20044;-90
2023/04/29 01:07:50;;;;;;;32.50;22.05;;;;;;;16.40;50.39;92998.03;4910284;29;20047;-89
2023/04/29 01:10:27;;;;;;;33.88;21.48;;;;;;;16.40;50.09;92995.31;4932931;29;20040;-89
2023/04/29 01:13:16;;;;;;;35.75;22.60;;;;;;;16.38;49.96;92995.06;4932411;29;20039;-89
2023/04/29 01:16:03;;;;;;;31.98;21.50;;;;;;;16.38;50.14;93006.72;4928340;29;20048;-90
2023/04/29 01:18:40;;;;;;;32.40;20.92;;;;;;;16.35;50.17;93005.00;4910876;29;20063;-90
2023/04/29 01:21:05;;;;;;;34.70;21.17;;;;;;;16.38;50.20;93001.25;4915079;29;20522;-88
2023/04/29 01:23:31;;;;;;;31.13;20.77;;;;;;;16.38;50.41;92990.34;4907069;29;20048;-87
2023/04/29 01:25:56;;;;;;;29.02;20.33;;;;;;;16.36;50.31;92979.19;4929179;29;20040;-87
2023/04/29 01:28:52;;;;;;;33.13;19.90;;;;;;;16.38;49.87;92973.97;4907997;29;20048;-89
2023/04/29 01:31:30;;;;;;;29.52;21.52;;;;;;;16.36;49.87;92979.19;4916238;29;20084;-90
2023/04/29 01:34:07;;;;;;;34.72;23.70;;;;;;;16.35;50.32;92983.19;4918792;29;20035;-90
2023/04/29 01:37:01;;;;;;;31.40;22.02;;;;;;;16.36;49.89;92995.56;4947856;29;20470;-87
2023/04/29 01:40:05;;;;;;;34.05;21.42;;;;;;;16.37;50.37;92988.13;4891011;29;20045;-87
2023/04/29 01:42:46;;;;;;;33.47;22.05;;;;;;;16.36;49.95;92998.28;4913546;29;20076;-90
2023/04/29 01:45:15;;;;;;;32.30;21.98;;;;;;;16.35;50.10;92982.44;4913560;29;20601;-91
2023/04/29 01:47:41;;;;;;;34.75;22.23;;;;;;;16.39;50.18;92997.28;4901697;29;20048;-89
2023/04/29 01:50:06;;;;;;;37.63;22.85;;;;;;;16.39;50.23;92985.63;4900117;29;20055;-87
2023/04/29 01:52:32;;;;;;;42.15;21.77;;;;;;;16.39;50.32;92989.09;4911465;29;20039;-89
2023/04/29 01:54:57;;;;;;;37.95;24.13;;;;;;;16.38;50.37;92987.63;4916933;29;20062;-89
2023/04/29 01:57:23;;;;;;;44.70;22.73;;;;;;;16.40;49.97;92987.13;4928271;29;20038;-89
2023/04/29 01:59:48;;;;;;;40.95;21.50;;;;;;;16.36;50.36;92981.19;4915506;29;20043;-89
2023/04/29 02:02:14;;;;;;;41.90;23.52;;;;;;;16.40;50.05;92995.31;4905036;29;20051;-91
2023/04/29 02:04:39;;;;;;;44.53;23.85;;;;;;;16.37;50.03;92988.13;4931090;29;20036;-90
2023/04/29 02:07:05;;;;;;;50.83;30.48;;;;;;;16.38;50.05;92995.81;4915965;29;20052;-90
2023/04/29 02:09:30;;;;;;;54.53;33.15;;;;;;;16.38;50.10;92984.91;4916456;29;20111;-91
2023/04/29 02:11:55;;;;;;;46.90;27.70;;;;;;;16.40;49.97;92990.59;4916168;29;20040;-90
2023/04/29 02:14:21;;;;;;;53.92;34.50;;;;;;;16.39;50.27;92989.09;4899561;29;20047;-87
2023/04/29 02:16:46;;;;;;;45.08;30.70;;;;;;;16.40;50.28;92987.13;4922196;29;20055;-90
2023/04/29 02:19:12;;;;;;;42.22;26.92;;;;;;;16.38;50.15;92987.63;4915433;29;20052;-90
2023/04/29 02:21:39;;;;;;;39.55;24.00;;;;;;;16.38;50.30;92987.63;4916474;29;20036;-87
2023/04/29 02:24:05;;;;;;;36.10;22.77;;;;;;;16.38;50.41;92986.88;4913205;29;20048;-91
2023/04/29 02:26:30;;;;;;;33.75;20.90;;;;;;;16.43;50.05;92986.09;4900321;29;20036;-90
2023/04/29 02:28:59;;;;;;;31.42;20.10;;;;;;;16.41;50.11;92980.41;4907909;29;20041;-89
2023/04/29 02:31:24;;;;;;;35.95;21.92;;;;;;;16.40;50.21;92978.94;4915521;29;20071;-88
2023/04/29 02:33:51;;;;;;;34.80;22.08;;;;;;;16.39;50.30;92982.91;4931774;29;20039;-90
2023/04/29 02:36:17;;;;;;;29.02;19.45;;;;;;;16.41;49.90;92986.59;4889113;29;20618;-89
2023/04/29 02:38:42;;;;;;;29.23;20.17;;;;;;;16.44;50.39;92985.59;4911507;29;20065;-87
2023/04/29 02:41:08;;;;;;;29.38;18.63;;;;;;;16.42;50.36;92979.16;4918892;29;20871;-88
2023/04/29 02:43:34;;;;;;;28.05;17.52;;;;;;;16.43;50.43;92983.38;4909905;29;20051;-91
2023/04/29 02:45:59;;;;;;;28.40;18.48;;;;;;;16.42;49.95;92982.63;4899498;29;20027;-88
2023/04/29 02:48:24;;;;;;;26.98;18.50;;;;;;;16.45;50.32;92983.59;4898605;29;20052;-90
2023/04/29 02:50:50;;;;;;;29.10;19.33;;;;;;;16.46;50.41;92988.53;4892983;29;20052;-91
2023/04/29 02:53:15;;;;;;;29.70;18.38;;;;;;;16.43;49.90;92986.84;4917190;28;20048;-89
2023/04/29 02:55:42;;;;;;;29.30;18.88;;;;;;;16.42;50.34;92990.06;4904682;29;20467;-88
2023/04/29 02:58:08;;;;;;;33.95;19.70;;;;;;;16.40;49.86;92974.22;4892209;29;20139;-88
2023/04/29 03:00:34;;;;;;;31.08;19.10;;;;;;;16.40;50.38;92987.84;4907897;29;20459;-90
2023/04/29 03:03:00;;;;;;;28.85;17.65;;;;;;;16.39;50.20;92980.19;4903668;29;20044;-88
2023/04/29 03:05:26;;;;;;;26.63;17.75;;;;;;;16.38;50.01;92976.72;4906008;29;20041;-90
2023/04/29 03:07:52;;;;;;;28.67;17.98;;;;;;;16.41;49.99;92985.88;4917631;29;20059;-89
2023/04/29 03:10:18;;;;;;;27.17;18.45;;;;;;;16.40;49.91;92981.66;4914134;29;20040;-90
2023/04/29 03:12:43;;;;;;;24.88;18.17;;;;;;;16.39;50.38;92983.66;4914919;29;20481;-90
2023/04/29 03:15:09;;;;;;;26.30;17.85;;;;;;;16.39;49.92;92980.19;4899348;29;20055;-88
2023/04/29 03:17:35;;;;;;;26.85;18.10;;;;;;;16.36;50.22;92989.38;4902443;29;20040;-90
2023/04/29 03:20:01;;;;;;;28.85;18.17;;;;;;;16.44;50.39;92976.66;4912057;29;20067;-91
2023/04/29 03:22:26;;;;;;;33.40;17.42;;;;;;;16.39;50.27;92972.72;4914565;29;20453;-89
2023/04/29 03:24:52;;;;;;;31.83;22.08;;;;;;;16.38;49.85;92979.44;4931237;29;20059;-89
2023/04/29 03:27:18;;;;;;;32.45;21.25;;;;;;;16.34;50.35;92981.69;4914525;29;20055;-88
2023/04/29 03:29:43;;;;;;;24.70;17.85;;;;;;;16.42;50.21;92981.91;4909689;29;20239;-87
2023/04/29 03:32:09;;;;;;;27.60;20.50;;;;;;;16.40;50.27;92981.66;4928260;29;20031;-90
2023/04/29 03:34:35;;;;;;;31.05;22.98;;;;;;;16.43;50.16;92977.91;4899137;29;20043;-89
2023/04/29 03:37:02;;;;;;;33.33;21.15;;;;;;;16.42;49.80;92976.44;4897093;29;20043;-91
2023/04/29 03:39:31;;;;;;;26.95;19.52;;;;;;;16.41;50.14;92972.22;4916043;29;20051;-89
2023/04/29 03:42:00;;;;;;;27.63;18.95;;;;;;;16.41;50.05;92974.97;4900363;29;20158;-87
2023/04/29 03:44:25;;;;;;;26.92;19.30;;;;;;;16.41;50.25;92962.06;4931008;29;20120;-87
2023/04/29 03:46:51;;;;;;;29.00;18.98;;;;;;;16.39;50.37;92959.09;4918325;29;20787;-91
2023/04/29 03:49:16;;;;;;;27.08;18.45;;;;;;;16.40;50.19;92963.31;4932689;29;20043;-88
2023/04/29 03:51:43;;;;;;;29.02;19.33;;;;;;;16.39;50.26;92969.25;4928005;29;20047;-88
2023/04/29 03:54:09;;;;;;;29.02;19.92;;;;;;;16.39;50.13;92970.00;4914676;29;20044;-89
2023/04/29 03:56:34;;;;;;;25.85;18.60;;;;;;;16.37;50.15;92977.97;4932854;29;20094;-91
2023/04/29 03:59:00;;;;;;;23.33;17.05;;;;;;;16.39;50.21;92986.38;4933851;29;20039;-87
2023/04/29 04:01:25;;;;;;;28.25;17.48;;;;;;;16.39;50.06;92978.19;4944558;28;20040;-91
2023/04/29 04:03:51;;;;;;;26.52;17.45;;;;;;;16.40;50.04;92976.94;4915579;29;20047;-88
2023/04/29 04:06:16;;;;;;;24.17;16.58;;;;;;;16.40;49.80;92968.75;4947742;28;20043;-89
2023/04/29 04:08:41;;;;;;;25.80;15.23;;;;;;;16.51;49.93;92956.25;4918168;29;20067;-88
2023/04/29 04:11:08;;;;;;;23.27;16.50;;;;;;;16.49;49.87;92975.13;4948729;28;20094;-89
2023/04/29 04:13:34;;;;;;;23.42;16.45;;;;;;;16.44;49.94;92971.97;4949825;28;20070;-89
2023/04/29 04:15:59;;;;;;;23.42;16.27;;;;;;;16.48;49.85;92973.66;4934264;29;20039;-91
2023/04/29 04:18:25;;;;;;;23.88;16.25;;;;;;;16.46;49.75;92977.63;4928216;29;20039;-87
2023/04/29 04:20:50;;;;;;;26.35;17.60;;;;;;;16.46;50.13;92974.88;4949836;28;20043;-91
2023/04/29 04:23:15;;;;;;;26.58;18.95;;;;;;;16.45;50.21;92969.97;4932614;29;20047;-88
2023/04/29 04:25:47;;;;;;;28.33;20.73;;;;;;;16.49;49.95;92975.88;4933909;29;20384;-91
2023/04/29 04:28:12;;;;;;;30.35;19.55;;;;;;;16.49;49.68;92983.31;4932665;29;20239;-91
2023/04/29 04:30:38;;;;;;;23.13;17.38;;;;;;;16.50;49.89;92984.78;4923351;29;20117;-87
2023/04/29 04:33:03;;;;;;;24.63;16.45;;;;;;;16.48;49.83;92979.84;4916918;29;20047;-88
2023/04/29 04:35:29;;;;;;;27.25;17.45;;;;;;;16.44;50.08;92980.13;4917035;29;20092;-90
2023/04/29 04:37:54;;;;;;;21.55;16.45;;;;;;;16.47;50.06;92981.09;4933511;29;20461;-90
2023/04/29 04:40:19;;;;;;;22.70;16.33;;;;;;;16.44;50.09;92982.88;4913225;29;20044;-91
2023/04/29 04:42:45;;;;;;;21.80;16.35;;;;;;;16.45;49.55;92984.31;4903646;29;20043;-89
2023/04/29 04:45:10;;;;;;;19.83;14.90;;;;;;;16.50;49.86;92979.34;4932154;29;20051;-89
2023/04/29 04:47:36;;;;;;;24.13;16.33;;;;;;;16.47;49.83;92989.28;4934066;29;20047;-91
2023/04/29 04:50:03;;;;;;;22.88;16.02;;;;;;;16.45;50.10;92983.59;4933309;29;20537;-91
2023/04/29 04:52:28;;;;;;;24.45;15.77;;;;;;;16.44;49.65;92971.97;4905364;29;20043;-90
2023/04/29 04:54:54;;;;;;;21.08;15.18;;;;;;;16.42;50.06;92968.25;4914597;29;20036;-91
2023/04/29 04:57:19;;;;;;;22.17;15.85;;;;;;;16.46;49.95;92969.44;4931238;29;20043;-91
2023/04/29 04:59:46;;;;;;;19.38;14.50;;;;;;;16.59;49.99;92968.84;4932882;29;20126;-88
2023/04/29 05:02:11;;;;;;;21.52;15.82;;;;;;;16.53;50.34;92967.41;4906385;29;20036;-88
2023/04/29 05:04:36;;;;;;;25.73;15.02;;;;;;;16.45;49.91;92969.97;4948564;29;20046;-88
2023/04/29 05:07:02;;;;;;;20.73;14.75;;;;;;;16.57;50.13;92965.88;4947594;29;20055;-89
2023/04/29 05:09:27;;;;;;;19.38;15.18;;;;;;;16.50;50.23;92971.16;4931262;29;20134;-91
2023/04/29 05:11:53;;;;;;;20.65;13.93;;;;;;;16.47;49.93;92972.91;4916452;29;20039;-87
2023/04/29 05:14:18;;;;;;;20.08;14.57;;;;;;;16.43;49.78;92970.47;4915556;29;20079;-86
2023/04/29 05:16:45;;;;;;;21.67;14.70;;;;;;;16.46;50.07;92977.63;4915762;29;20043;-90
2023/04/29 05:19:10;;;;;;;35.97;14.68;;;;;;;16.54;49.95;92969.63;4922008;29;20169;-89
2023/04/29 05:21:36;;;;;;;21.55;14.35;;;;;;;16.46;49.96;92971.41;4905408;29;20094;-88
2023/04/29 05:24:01;;;;;;;20.02;14.45;;;;;;;16.51;49.98;92978.81;4916679;29;20078;-88
2023/04/29 05:26:27;;;;;;;21.95;14.48;;;;;;;16.46;50.04;92980.34;4931490;29;20449;-87
2023/04/29 05:28:52;;;;;;;20.95;15.52;;;;;;;16.47;50.16;92989.28;4930442;29;20110;-88
2023/04/29 05:31:18;;;;;;;21.48;14.85;;;;;;;16.49;49.83;92988.75;4911159;29;20390;-90
2023/04/29 05:33:43;;;;;;;22.42;15.68;;;;;;;16.43;50.02;92977.91;4932007;29;20046;-90
2023/04/29 05:36:08;;;;;;;21.75;15.05;;;;;;;16.41;50.26;92989.34;4919022;29;20062;-90
2023/04/29 05:38:34;;;;;;;20.83;15.13;;;;;;;16.38;49.87;92987.63;4951803;28;20043;-90
2023/04/29 05:41:00;;;;;;;18.77;15.15;;;;;;;16.41;50.00;92996.78;4915954;29;20660;-88
2023/04/29 05:43:26;;;;;;;24.25;16.45;;;;;;;16.43;49.90;92992.31;4896509;29;20048;-91
2023/04/29 05:45:51;;;;;;;22.70;15.20;;;;;;;16.45;49.92;93002.72;4885464;29;20042;-89
2023/04/29 05:48:17;;;;;;;21.02;16.17;;;;;;;16.44;50.25;92995.78;4890127;29;20037;-89
2023/04/29 05:50:43;;;;;;;24.60;15.93;;;;;;;16.42;49.85;93001.72;4928789;29;20334;-91
2023/04/29 05:53:08;;;;;;;22.48;16.85;;;;;;;16.42;50.16;93009.16;4879128;29;20041;-90
2023/04/29 05:55:34;;;;;;;20.40;14.95;;;;;;;16.42;50.19;93015.38;4898036;29;20048;-89
2023/04/29 05:57:59;;;;;;;24.25;16.88;;;;;;;16.41;50.13;93013.88;4909148;29;20044;-91
2023/04/29 06:00:24;;;;;;;21.45;15.38;;;;;;;16.39;49.83;93002.75;4896266;29;20044;-89
2023/04/29 06:02:50;;;;;;;23.88;15.27;;;;;;;16.39;49.93;93019.09;4869939;29;20072;-91
2023/04/29 06:05:15;;;;;;;22.50;15.63;;;;;;;16.41;50.27;93013.16;4875876;29;20119;-90
2023/04/29 06:07:41;;;;;;;22.40;15.63;;;;;;;16.39;50.17;93019.09;4863095;29;20538;-89
2023/04/29 06:10:07;;;;;;;21.85;15.65;;;;;;;16.39;50.11;93019.09;4893674;29;20044;-88
2023/04/29 06:12:33;;;;;;;18.88;14.25;;;;;;;16.43;49.88;93016.84;4881412;29;20241;-88
2023/04/29 06:14:58;;;;;;;19.15;14.00;;;;;;;16.44;50.36;93012.13;4896929;29;20502;-89
2023/04/29 06:17:24;;;;;;;18.42;14.45;;;;;;;16.39;50.22;93021.09;4892320;29;20037;-88
2023/04/29 06:19:49;;;;;;;18.27;13.38;;;;;;;16.42;49.89;93020.81;4893677;29;20089;-90
2023/04/29 06:22:14;;;;;;;16.83;13.57;;;;;;;16.41;50.34;93019.34;4878630;29;20044;-87
2023/04/29 06:24:40;;;;;;;17.95;13.40;;;;;;;16.38;49.80;93025.06;4896308;29;20549;-89
2023/04/29 06:27:05;;;;;;;17.27;13.52;;;;;;;16.40;50.02;93030.75;4913055;29;20045;-89
2023/04/29 06:29:31;;;;;;;18.58;13.77;;;;;;;16.41;50.32;93026.78;4892373;29;20092;-90
2023/04/29 06:31:56;;;;;;;17.00;12.75;;;;;;;16.44;49.95;93028.50;4893852;29;20487;-87
2023/04/29 06:34:22;;;;;;;22.77;13.63;;;;;;;16.43;50.09;93021.56;4911046;29;20044;-90
2023/04/29 06:36:47;;;;;;;19.08;13.10;;;;;;;16.42;50.37;93028.28;4896739;29;20055;-87
2023/04/29 06:39:12;;;;;;;20.13;13.32;;;;;;;16.40;50.04;93026.03;4911084;29;20032;-91
2023/04/29 06:41:39;;;;;;;17.35;13.02;;;;;;;16.40;49.77;93020.59;4894639;29;20049;-90
2023/04/29 06:44:05;;;;;;;17.95;13.23;;;;;;;16.40;50.11;93031.50;4880631;29;20040;-88
2023/04/29 06:46:30;;;;;;;131.88;25.40;;;;;;;16.41;49.86;93030.25;4913669;29;20039;-89
2023/04/29 06:48:56;;;;;;;21.10;13.13;;;;;;;16.42;50.38;93023.56;4918409;29;20506;-89
2023/04/29 06:51:21;;;;;;;21.98;13.73;;;;;;;16.45;50.04;93025.25;4946679;29;20099;-87
2023/04/29 06:53:47;;;;;;;18.75;13.07;;;;;;;16.44;50.06;93036.69;4913863;29;20094;-87
2023/04/29 06:56:12;;;;;;;22.35;14.00;;;;;;;16.49;50.01;93032.41;4907832;29;20055;-90
2023/04/29 06:58:38;;;;;;;18.65;13.68;;;;;;;16.45;49.79;93038.88;4918091;29;20058;-90
2023/04/29 07:01:04;;;;;;;16.40;12.90;;;;;;;16.43;50.37;93041.41;4917540;29;20043;-87
2023/04/29 07:03:30;;;;;;;22.42;15.70;;;;;;;16.40;50.41;93036.97;4932505;29;20051;-89
2023/04/29 07:05:55;;;;;;;17.95;13.38;;;;;;;16.39;50.69;93054.56;4928679;29;20044;-90
2023/04/29 07:08:20;;;;;;;20.30;12.75;;;;;;;16.40;51.02;93055.31;4917229;29;20047;-88
2023/04/29 07:10:55;;;;;;;35.10;25.08;;;;;;;16.43;51.05;93043.41;4917285;29;20035;-88
2023/04/29 07:13:20;;;;;;;19.70;14.82;;;;;;;16.44;50.32;93048.34;4933115;29;20074;-88
2023/04/29 07:15:46;;;;;;;22.60;13.80;;;;;;;16.43;50.87;93051.56;4909527;29;20055;-87
2023/04/29 07:18:11;;;;;;;26.02;18.48;;;;;;;16.41;50.57;93054.06;4910057;29;20047;-89
2023/04/29 07:20:37;;;;;;;21.40;14.23;;;;;;;16.42;50.99;93053.56;4897234;29;20036;-89
2023/04/29 07:23:02;;;;;;;21.65;14.32;;;;;;;16.42;50.85;93044.63;4912981;29;20082;-90
2023/04/29 07:25:28;;;;;;;92.03;25.15;;;;;;;16.52;50.61;93055.97;4932658;29;20047;-89
2023/04/29 07:27:54;;;;;;;27.73;14.07;;;;;;;16.44;50.37;93061.25;4933345;29;20051;-88
2023/04/29 07:30:19;;;;;;;26.88;14.48;;;;;;;16.42;50.71;93069.19;4941975;28;20417;-88
2023/04/29 07:32:45;;;;;;;31.27;14.77;;;;;;;16.42;50.41;93061.00;4950632;29;20039;-87
2023/04/29 07:35:10;;;;;;;30.63;13.88;;;;;;;16.43;50.33;93068.69;4932669;29;20064;-86
2023/04/29 07:37:36;;;;;;;18.30;14.07;;;;;;;16.44;50.38;93072.16;4949916;28;20040;-87
2023/04/29 07:40:01;;;;;;;23.65;14.82;;;;;;;16.45;50.58;93068.19;4933628;29;20489;-88
2023/04/29 07:42:26;;;;;;;21.52;13.68;;;;;;;16.52;50.31;93075.06;4909802;29;20059;-87
2023/04/29 07:44:52;;;;;;;26.52;15.63;;;;;;;16.48;50.86;93053.50;4928606;29;20066;-87
2023/04/29 07:47:17;;;;;;;26.08;16.58;;;;;;;16.45;50.18;93071.63;4916918;29;20070;-90
2023/04/29 07:49:43;;;;;;;22.63;15.15;;;;;;;16.49;50.34;93076.06;4930442;29;20044;-90
2023/04/29 07:52:08;;;;;;;21.42;14.70;;;;;;;16.44;50.57;93064.72;4908751;29;20067;-89
2023/04/29 07:54:35;;;;;;;23.92;15.07;;;;;;;16.46;50.33;93075.09;4941455;29;20047;-91
2023/04/29 07:57:02;;;;;;;36.78;15.07;;;;;;;16.56;51.29;93078.28;4929020;29;20061;-92
2023/04/29 07:59:27;;;;;;;26.55;15.48;;;;;;;16.53;50.92;93079.28;4933482;29;20043;-92
2023/04/29 08:01:53;;;;;;;39.40;19.30;;;;;;;16.52;51.01;93092.19;4950219;28;20046;-92
2023/04/29 08:04:19;;;;;;;24.08;13.85;;;;;;;16.63;52.12;93085.91;4942626;29;20040;-90
2023/04/29 08:06:45;;;;;;;34.25;14.32;;;;;;;16.61;51.74;93094.59;4906608;29;20051;-90
2023/04/29 08:09:11;;;;;;;37.78;20.02;;;;;;;16.62;51.65;93087.16;4913985;29;20039;-89
2023/04/29 08:11:36;;;;;;;28.65;13.30;;;;;;;16.67;53.28;93089.16;4926643;29;20051;-88
2023/04/29 08:14:01;;;;;;;75.65;30.75;;;;;;;16.54;51.45;93091.69;4932590;29;20058;-88
2023/04/29 08:16:27;;;;;;;62.22;26.42;;;;;;;16.56;51.70;93097.38;4932868;29;20050;-89
2023/04/29 08:18:53;;;;;;;76.45;29.17;;;;;;;16.52;51.05;93091.44;4912257;29;20047;-88
2023/04/29 08:21:18;;;;;;;67.32;27.02;;;;;;;16.54;51.38;93094.41;4948360;28;20043;-89
2023/04/29 08:23:44;;;;;;;66.82;29.63;;;;;;;16.48;50.74;93099.88;4916806;29;20042;-89
2023/04/29 08:26:11;;;;;;;70.30;31.80;;;;;;;16.50;50.75;93099.38;4915996;29;20050;-87
2023/04/29 08:28:37;;;;;;;75.47;30.90;;;;;;;16.46;51.02;93107.84;4932734;29;20039;-89
2023/04/29 08:31:04;;;;;;;102.32;35.55;;;;;;;16.44;51.03;93100.19;4907154;29;20094;-87
2023/04/29 08:33:30;;;;;;;81.18;33.65;;;;;;;16.49;51.06;93100.63;4898367;29;20039;-88
2023/04/29 08:36:02;;;;;;;110.30;37.45;;;;;;;16.48;50.44;93099.16;4898210;29;20402;-88
2023/04/29 08:38:27;;;;;;;122.00;38.40;;;;;;;16.48;50.84;93099.88;4932689;29;20512;-87
2023/04/29 08:40:53;;;;;;;96.47;37.28;;;;;;;16.48;50.47;93108.06;4932227;29;20051;-89
2023/04/29 08:43:18;;;;;;;100.70;35.83;;;;;;;16.47;50.62;93101.13;4941877;29;20116;-88
2023/04/29 08:45:44;;;;;;;106.05;36.90;;;;;;;16.53;50.76;93104.56;4948640;28;20117;-87
2023/04/29 08:48:09;;;;;;;97.90;38.47;;;;;;;16.54;50.71;93103.34;4916177;29;20046;-87
2023/04/29 08:50:38;;;;;;;111.40;39.50;;;;;;;16.52;50.98;93094.16;4932681;29;20469;-86
2023/04/29 08:53:05;;;;;;;93.00;36.72;;;;;;;16.52;50.44;93113.25;4896596;29;20044;-89
2023/04/29 08:55:32;;;;;;;83.25;38.63;;;;;;;16.56;50.69;93111.75;4920500;29;20063;-87
2023/04/29 08:57:57;;;;;;;78.35;36.38;;;;;;;16.53;50.44;93114.75;4895880;29;20107;-89
2023/04/29 09:00:23;;;;;;;97.40;39.10;;;;;;;16.53;50.53;93115.50;4904188;29;20044;-87
2023/04/29 09:02:50;;;;;;;92.05;37.45;;;;;;;16.55;50.82;93115.00;4912735;29;20134;-88
2023/04/29 09:05:15;;;;;;;104.22;39.55;;;;;;;16.55;51.07;93110.28;4887765;29;20645;-88
2023/04/29 09:07:41;;;;;;;116.18;39.17;;;;;;;16.55;50.84;93104.81;4913481;29;20122;-87
2023/04/29 09:10:06;;;;;;;104.63;41.35;;;;;;;16.53;50.70;93107.31;4916417;29;20043;-89
2023/04/29 09:12:32;;;;;;;114.38;43.65;;;;;;;16.53;50.43;93110.03;4926956;29;20047;-89
2023/04/29 09:14:57;;;;;;;102.60;40.78;;;;;;;16.62;50.98;93101.56;4910823;29;20044;-89
2023/04/29 09:17:39;;;;;;;113.43;41.70;;;;;;;16.59;50.84;93113.47;4919957;29;20494;-88
2023/04/29 09:20:20;;;;;;;94.20;38.75;;;;;;;16.57;50.48;93107.03;4903574;29;20046;-88
2023/04/29 09:22:49;;;;;;;105.30;41.63;;;;;;;16.57;50.64;93113.25;4928977;29;20048;-88
2023/04/29 09:25:15;;;;;;;100.55;40.22;;;;;;;16.56;50.99;93109.03;4904881;29;20534;-88
2023/04/29 09:27:41;;;;;;;119.43;42.85;;;;;;;16.54;50.83;93108.78;4908931;29;20035;-88
2023/04/29 09:30:07;;;;;;;103.45;43.53;;;;;;;16.53;50.59;93115.50;4918469;28;20397;-87
2023/04/29 09:32:33;;;;;;;98.43;37.80;;;;;;;16.59;51.04;93113.47;4900721;29;20497;-89
2023/04/29 09:34:58;;;;;;;94.50;40.30;;;;;;;16.54;50.85;93119.69;4887030;29;20040;-89
2023/04/29 09:37:26;;;;;;;91.82;37.13;;;;;;;16.62;50.78;93117.19;4891646;29;20087;-89
2023/04/29 09:39:51;;;;;;;90.30;39.88;;;;;;;16.58;50.81;93116.72;4900970;29;20039;-88
2023/04/29 09:42:17;;;;;;;82.70;38.22;;;;;;;16.60;50.60;93119.69;4933521;29;20062;-88
2023/04/29 09:44:42;;;;;;;100.40;41.10;;;;;;;16.61;50.41;93124.63;4905810;29;20540;-88
2023/04/29 09:47:08;;;;;;;84.82;37.40;;;;;;;16.60;50.61;93116.94;4951225;29;20043;-88
2023/04/29 09:49:36;;;;;;;103.38;38.10;;;;;;;16.58;50.33;93116.72;4915284;29;20043;-88
2023/04/29 09:52:09;;;;;;;88.97;38.45;;;;;;;16.59;50.77;93129.09;4916002;29;20058;-89
2023/04/29 09:54:35;;;;;;;100.38;37.25;;;;;;;16.64;50.91;93125.63;4902412;29;20039;-88
2023/04/29 09:57:01;;;;;;;101.82;38.28;;;;;;;16.66;50.32;93131.34;4907778;29;20043;-88
2023/04/29 09:59:26;;;;;;;80.38;36.42;;;;;;;16.67;50.62;93114.44;4917922;29;20043;-88
2023/04/29 10:01:54;;;;;;;105.20;37.40;;;;;;;16.64;50.70;93125.63;4919564;29;20086;-88
2023/04/29 10:04:20;;;;;;;98.55;38.17;;;;;;;16.61;50.54;93121.91;4902357;29;20047;-86
2023/04/29 10:06:48;;;;;;;79.57;35.90;;;;;;;16.70;50.62;93127.06;4932124;29;20469;-88
2023/04/29 10:09:16;;;;;;;91.50;38.20;;;;;;;16.74;51.10;93119.34;4899529;29;20179;-88
2023/04/29 10:11:47;;;;;;;95.63;40.05;;;;;;;16.73;50.06;93126.06;4950655;28;20051;-87
2023/04/29 10:14:18;;;;;;;92.70;38.70;;;;;;;16.74;51.18;93124.06;4932999;29;20401;-88
2023/04/29 10:16:53;;;;;;;101.65;41.20;;;;;;;16.75;51.15;93129.03;4934712;29;20047;-88
2023/04/29 10:19:33;;;;;;;123.68;43.80;;;;;;;16.74;50.91;93118.59;4911382;29;20658;-88
2023/04/29 10:22:08;;;;;;;129.07;49.15;;;;;;;16.70;50.47;93118.88;4915014;29;20522;-89
2023/04/29 10:24:38;;;;;;;131.73;53.25;;;;;;;16.68;50.75;93113.19;4934922;29;20035;-89
2023/04/29 10:27:07;;;;;;;128.80;53.42;;;;;;;16.68;50.64;93110.44;4919199;29;20560;-89
2023/04/29 10:29:33;;;;;;;111.97;52.20;;;;;;;16.71;50.51;93112.16;4935549;29;20043;-88
2023/04/29 10:31:59;;;;;;;135.38;54.40;;;;;;;16.75;50.52;93115.38;4908872;29;20078;-88
2023/04/29 10:34:24;;;;;;;118.47;53.92;;;;;;;16.75;50.43;93107.19;4899726;29;20048;-88
2023/04/29 10:36:50;;;;;;;129.48;56.08;;;;;;;16.68;50.28;93109.72;4899540;29;20039;-89
2023/04/29 10:39:22;;;;;;;121.30;60.78;;;;;;;16.73;50.41;93108.94;4949585;28;20413;-90
2023/04/29 10:41:48;;;;;;;136.25;53.45;;;;;;;16.77;51.03;93106.69;4909438;29;20223;-89
2023/04/29 10:44:14;;;;;;;119.22;51.65;;;;;;;16.77;50.42;93106.69;4912152;29;20040;-89
2023/04/29 10:46:40;;;;;;;166.43;58.70;;;;;;;16.72;50.32;93107.44;4939544;29;20036;-89
2023/04/29 10:49:06;;;;;;;130.80;50.60;;;;;;;16.70;50.76;93102.50;4924037;29;20102;-90
2023/04/29 10:51:38;;;;;;;112.93;48.60;;;;;;;16.72;50.27;93102.72;4923769;29;20047;-88
2023/04/29 10:54:08;;;;;;;111.50;47.65;;;;;;;16.76;50.89;93094.28;4917171;29;20121;-88
2023/04/29 10:56:35;;;;;;;112.68;49.38;;;;;;;16.75;50.51;93090.81;4918900;29;20048;-90
2023/04/29 10:59:01;;;;;;;103.70;45.13;;;;;;;16.79;51.33;93096.75;4924819;29;20106;-88
2023/04/29 11:01:41;;;;;;;110.35;45.10;;;;;;;16.79;51.14;93087.81;4939680;29;20043;-90
2023/04/29 11:04:08;;;;;;;101.95;45.78;;;;;;;16.91;51.30;93089.19;4913866;29;20040;-89
2023/04/29 11:06:33;;;;;;;95.80;47.13;;;;;;;16.84;50.70;93087.03;4937294;29;20040;-90
2023/04/29 11:09:09;;;;;;;113.38;55.63;;;;;;;16.82;50.61;93084.06;4938442;29;20047;-89
2023/04/29 11:11:57;;;;;;;135.40;74.32;;;;;;;16.84;50.21;93080.84;4905610;29;20082;-89
2023/04/29 11:14:24;;;;;;;127.88;64.05;;;;;;;16.74;50.43;93083.13;4910537;29;20058;-91
2023/04/29 11:16:57;;;;;;;105.60;54.33;;;;;;;16.76;50.61;93088.81;4923970;29;20077;-88